createdAt,value
2023-05-21T00:02:17.349Z,16.98
2023-05-21T00:04:44.888Z,16.96
2023-05-21T00:07:12.660Z,16.96
2023-05-21T00:09:39.116Z,16.94
2023-05-21T00:12:06.601Z,16.86
2023-05-21T00:14:33.170Z,16.95
2023-05-21T00:16:59.617Z,16.88
2023-05-21T00:19:27.139Z,17.04
2023-05-21T00:21:54.774Z,16.87
2023-05-21T00:24:21.316Z,17.02
2023-05-21T00:26:47.803Z,16.96
2023-05-21T00:29:14.416Z,16.91
2023-05-21T00:31:41.014Z,16.86
2023-05-21T00:34:07.566Z,16.99
2023-05-21T00:36:34.785Z,16.89
2023-05-21T00:39:02.373Z,16.91
2023-05-21T00:41:30.161Z,16.83
2023-05-21T00:43:57.225Z,16.83
2023-05-21T00:46:24.024Z,16.93
2023-05-21T00:48:51.164Z,16.98
2023-05-21T00:51:18.703Z,16.87
2023-05-21T00:53:46.620Z,16.82
2023-05-21T00:56:13.692Z,16.82
2023-05-21T00:58:40.984Z,16.91
2023-05-21T01:01:13.849Z,16.97
2023-05-21T01:03:41.011Z,16.81
2023-05-21T01:06:09.704Z,16.85
2023-05-21T01:08:40.684Z,16.82
2023-05-21T01:11:08.010Z,16.72
2023-05-21T01:13:38.595Z,16.63
2023-05-21T01:16:08.995Z,16.63
2023-05-21T01:18:37.786Z,16.67
2023-05-21T01:21:05.407Z,16.71
2023-05-21T01:23:32.060Z,16.61
2023-05-21T01:25:58.542Z,16.58
2023-05-21T01:28:25.066Z,16.46
2023-05-21T01:30:51.904Z,16.60
2023-05-21T01:33:26.034Z,16.61
2023-05-21T01:36:09.384Z,16.60
2023-05-21T01:38:42.700Z,16.58
2023-05-21T01:41:14.117Z,16.58
2023-05-21T01:43:43.994Z,16.47
2023-05-21T01:46:16.946Z,16.45
2023-05-21T01:48:44.505Z,16.40
2023-05-21T01:51:11.875Z,16.35
2023-05-21T01:57:59.061Z,16.21
2023-05-21T02:00:29.349Z,16.19
2023-05-21T02:02:55.920Z,16.27
2023-05-21T02:05:22.464Z,16.19
2023-05-21T02:07:51.959Z,16.23
2023-05-21T02:10:19.140Z,16.29
2023-05-21T02:12:46.008Z,16.25
2023-05-21T02:15:14.252Z,16.24
2023-05-21T02:17:42.516Z,16.24
2023-05-21T02:20:11.930Z,16.17
2023-05-21T02:22:39.866Z,16.15
2023-05-21T02:25:07.932Z,16.20
2023-05-21T02:27:36.729Z,16.19
2023-05-21T02:30:05.984Z,16.27
2023-05-21T02:32:32.767Z,16.24
2023-05-21T02:34:59.569Z,16.17
2023-05-21T02:37:29.871Z,16.14
2023-05-21T02:39:56.723Z,15.97
2023-05-21T02:42:23.825Z,15.94
2023-05-21T02:44:51.331Z,16.01
2023-05-21T02:47:19.710Z,15.97
2023-05-21T02:49:46.921Z,16.07
2023-05-21T02:52:13.696Z,16.09
2023-05-21T02:54:40.166Z,16.08
2023-05-21T02:57:06.676Z,16.10
2023-05-21T02:59:33.183Z,16.03
2023-05-21T03:02:00.427Z,16.01
2023-05-21T03:04:28.375Z,15.89
2023-05-21T03:06:56.513Z,15.94
2023-05-21T03:09:23.017Z,15.81
2023-05-21T03:11:50.349Z,15.77
2023-05-21T03:14:16.850Z,15.66
2023-05-21T03:16:43.833Z,15.61
2023-05-21T03:19:11.508Z,15.68
2023-05-21T03:21:38.268Z,15.74
2023-05-21T03:24:06.864Z,15.68
2023-05-21T03:26:33.706Z,15.71
2023-05-21T03:29:00.286Z,15.65
2023-05-21T03:31:27.754Z,15.72
2023-05-21T03:34:08.577Z,15.68
2023-05-21T03:36:35.099Z,15.69
2023-05-21T03:39:03.567Z,15.75
2023-05-21T03:41:32.887Z,15.73
2023-05-21T03:44:06.302Z,15.70
2023-05-21T03:46:45.628Z,15.70
2023-05-21T03:49:20.518Z,15.77
2023-05-21T03:51:49.516Z,15.75
2023-05-21T03:54:17.728Z,15.74
2023-05-21T03:56:44.611Z,15.79
2023-05-21T03:59:11.461Z,15.78
2023-05-21T04:01:39.055Z,15.87
2023-05-21T04:04:07.945Z,15.78
2023-05-21T04:06:34.481Z,15.75
2023-05-21T04:09:01.178Z,15.83
2023-05-21T04:11:27.700Z,15.89
2023-05-21T04:13:54.150Z,15.85
2023-05-21T04:16:20.641Z,15.92
2023-05-21T04:18:47.360Z,15.96
2023-05-21T04:21:15.423Z,16.01
2023-05-21T04:23:41.874Z,16.10
2023-05-21T04:26:17.850Z,16.16
2023-05-21T04:28:45.977Z,16.27
2023-05-21T04:31:14.229Z,16.24
2023-05-21T04:33:42.189Z,16.41
2023-05-21T04:36:11.674Z,16.46
2023-05-21T04:38:39.816Z,16.65
2023-05-21T04:41:06.915Z,16.68
2023-05-21T04:43:33.456Z,16.74
2023-05-21T04:46:00.008Z,16.76
2023-05-21T04:48:29.426Z,16.85
2023-05-21T04:50:56.756Z,16.92
2023-05-21T04:53:25.864Z,17.13
2023-05-21T04:55:52.439Z,17.26
2023-05-21T04:58:19.517Z,17.36
2023-05-21T05:00:46.936Z,17.43
2023-05-21T05:03:13.885Z,17.52
2023-05-21T05:05:40.805Z,17.53
2023-05-21T05:08:07.678Z,17.72
2023-05-21T05:10:34.162Z,17.78
2023-05-21T05:13:00.766Z,17.76
2023-05-21T05:15:28.871Z,17.80
2023-05-21T05:17:56.621Z,17.92
2023-05-21T05:20:23.160Z,17.92
2023-05-21T05:22:50.469Z,17.91
2023-05-21T05:25:17.260Z,18.07
2023-05-21T05:27:44.766Z,18.12
2023-05-21T05:30:11.693Z,18.09
2023-05-21T05:32:38.340Z,18.15
2023-05-21T05:35:05.533Z,18.15
2023-05-21T05:37:32.780Z,18.03
2023-05-21T05:39:59.348Z,18.21
2023-05-21T05:42:27.050Z,18.23
2023-05-21T05:44:53.780Z,18.24
2023-05-21T05:47:21.757Z,18.27
2023-05-21T05:49:48.688Z,18.28
2023-05-21T05:52:15.302Z,18.38
2023-05-21T05:54:41.746Z,18.43
2023-05-21T05:57:08.842Z,18.42
2023-05-21T05:59:35.972Z,18.43
2023-05-21T06:02:03.012Z,18.45
2023-05-21T06:04:30.002Z,18.47
2023-05-21T06:07:00.525Z,18.31
2023-05-21T06:09:27.015Z,18.33
2023-05-21T06:11:53.479Z,18.35
2023-05-21T06:14:19.956Z,18.42
2023-05-21T06:16:46.481Z,18.50
2023-05-21T06:19:13.010Z,18.52
2023-05-21T06:21:39.532Z,18.44
2023-05-21T06:24:07.154Z,18.44
2023-05-21T06:26:33.777Z,18.54
2023-05-21T06:29:01.263Z,18.57
2023-05-21T06:31:28.691Z,18.57
2023-05-21T06:33:55.346Z,18.67
2023-05-21T06:36:22.071Z,18.76
2023-05-21T06:38:48.931Z,18.85
2023-05-21T06:41:15.453Z,19.08
2023-05-21T06:43:48.875Z,19.13
2023-05-21T06:46:38.510Z,19.41
2023-05-21T06:49:07.935Z,19.64
2023-05-21T06:51:34.749Z,19.67
2023-05-21T06:54:02.473Z,19.86
2023-05-21T06:56:29.042Z,20.09
2023-05-21T06:58:55.577Z,20.34
2023-05-21T07:01:23.447Z,20.64
2023-05-21T07:03:50.008Z,20.96
2023-05-21T07:06:16.894Z,21.09
2023-05-21T07:08:43.497Z,21.41
2023-05-21T07:11:10.122Z,21.50
2023-05-21T07:13:37.169Z,21.43
2023-05-21T07:16:03.792Z,21.74
2023-05-21T07:18:31.234Z,21.72
2023-05-21T07:20:57.804Z,21.93
2023-05-21T07:23:25.036Z,22.10
2023-05-21T07:25:51.592Z,22.22
2023-05-21T07:28:18.994Z,22.37
2023-05-21T07:30:45.491Z,22.58
2023-05-21T07:33:16.341Z,22.71
2023-05-21T07:35:43.959Z,22.89
2023-05-21T07:38:10.482Z,22.99
2023-05-21T07:40:37.181Z,22.84
2023-05-21T07:43:04.186Z,22.95
2023-05-21T07:45:32.068Z,23.01
2023-05-21T07:47:58.828Z,23.33
2023-05-21T07:50:26.434Z,23.63
2023-05-21T07:52:52.952Z,23.49
2023-05-21T07:55:20.202Z,23.72
2023-05-21T07:57:47.097Z,23.89
2023-05-21T08:00:16.194Z,23.68
2023-05-21T08:02:47.276Z,23.54
2023-05-21T08:05:16.367Z,23.64
2023-05-21T08:07:43.726Z,23.97
2023-05-21T08:10:10.481Z,24.17
2023-05-21T08:12:37.134Z,24.30
2023-05-21T08:15:05.075Z,24.49
2023-05-21T08:17:33.686Z,24.48
2023-05-21T08:20:00.480Z,24.71
2023-05-21T08:22:27.434Z,24.87
2023-05-21T08:24:54.499Z,24.80
2023-05-21T08:27:21.310Z,24.75
2023-05-21T08:29:48.050Z,24.79
2023-05-21T08:32:15.271Z,24.89
2023-05-21T08:34:42.200Z,24.99
2023-05-21T08:37:36.749Z,24.95
2023-05-21T08:40:12.638Z,24.75
2023-05-21T08:42:49.304Z,25.13
2023-05-21T08:45:26.681Z,24.92
2023-05-21T08:47:58.460Z,24.87
2023-05-21T08:50:28.288Z,24.88
2023-05-21T08:52:58.970Z,24.94
2023-05-21T08:55:26.804Z,25.22
2023-05-21T08:57:54.763Z,25.35
2023-05-21T09:00:22.843Z,25.54
2023-05-21T09:02:51.146Z,25.46
2023-05-21T09:05:19.161Z,25.36
2023-05-21T09:07:55.083Z,25.25
2023-05-21T09:11:01.359Z,25.39
2023-05-21T09:13:33.367Z,25.47
2023-05-21T09:16:04.173Z,25.57
2023-05-21T09:18:30.849Z,25.73
2023-05-21T09:21:27.376Z,25.79
2023-05-21T09:23:59.390Z,25.93
2023-05-21T09:26:26.655Z,25.93
2023-05-21T09:28:57.989Z,25.88
2023-05-21T09:31:25.930Z,25.95
2023-05-21T09:33:53.220Z,26.05
2023-05-21T09:36:21.869Z,26.10
2023-05-21T09:38:50.147Z,26.16
2023-05-21T09:41:21.244Z,26.23
2023-05-21T09:43:48.807Z,26.27
2023-05-21T09:46:16.032Z,26.43
2023-05-21T09:48:43.540Z,26.55
2023-05-21T09:51:16.526Z,26.72
2023-05-21T09:53:50.277Z,27.12
2023-05-21T09:56:18.952Z,27.02
2023-05-21T09:58:46.198Z,27.01
2023-05-21T10:01:13.418Z,27.13
2023-05-21T10:03:43.170Z,27.01
2023-05-21T10:06:11.600Z,26.86
2023-05-21T10:08:44.512Z,26.81
2023-05-21T10:11:11.901Z,26.62
2023-05-21T10:13:44.702Z,26.83
2023-05-21T10:16:11.384Z,27.09
2023-05-21T10:18:39.002Z,27.08
2023-05-21T10:21:07.192Z,27.10
2023-05-21T10:23:36.242Z,26.99
2023-05-21T10:26:04.085Z,26.81
2023-05-21T10:28:31.613Z,27.04
2023-05-21T10:30:58.712Z,26.81
2023-05-21T10:33:26.750Z,26.81
2023-05-21T10:35:54.416Z,26.99
2023-05-21T10:38:21.166Z,26.97
2023-05-21T10:40:49.011Z,27.07
2023-05-21T10:43:38.828Z,27.12
2023-05-21T10:46:19.562Z,26.98
2023-05-21T10:49:07.986Z,26.96
2023-05-21T10:52:07.234Z,26.77
2023-05-21T10:54:54.802Z,26.98
2023-05-21T10:57:39.930Z,26.91
2023-05-21T11:00:09.502Z,27.09
2023-05-21T11:02:36.833Z,27.39
2023-05-21T11:05:04.494Z,27.47
2023-05-21T11:08:01.486Z,27.56
2023-05-21T11:10:40.508Z,27.77
2023-05-21T11:13:16.976Z,27.94
2023-05-21T11:15:58.469Z,28.00
2023-05-21T11:18:30.899Z,28.32
2023-05-21T11:21:04.730Z,28.15
2023-05-21T11:23:53.571Z,28.17
2023-05-21T11:26:22.494Z,28.20
2023-05-21T11:29:03.987Z,28.04
2023-05-21T11:31:38.588Z,28.30
2023-05-21T11:34:11.678Z,28.42
2023-05-21T11:36:39.497Z,28.27
2023-05-21T11:39:15.297Z,28.19
2023-05-21T11:41:58.326Z,28.01
2023-05-21T11:44:47.518Z,27.97
2023-05-21T11:47:19.099Z,28.20
2023-05-21T11:49:46.576Z,27.93
2023-05-21T11:52:14.077Z,28.05
2023-05-21T11:54:46.102Z,28.06
2023-05-21T11:57:17.398Z,28.14
2023-05-21T11:59:44.449Z,28.07
2023-05-21T12:02:17.875Z,28.05
2023-05-21T12:04:46.494Z,28.09
2023-05-21T12:07:15.041Z,28.07
2023-05-21T12:09:46.783Z,28.20
2023-05-21T12:12:16.455Z,28.18
2023-05-21T12:14:48.012Z,28.14
2023-05-21T12:17:25.240Z,28.07
2023-05-21T12:19:55.043Z,28.02
2023-05-21T12:22:23.470Z,28.42
2023-05-21T12:24:50.373Z,28.53
2023-05-21T12:27:18.183Z,28.63
2023-05-21T12:29:46.428Z,28.29
2023-05-21T12:32:14.669Z,28.18
2023-05-21T12:34:46.569Z,28.39
2023-05-21T12:37:15.995Z,28.31
2023-05-21T12:39:46.757Z,28.38
2023-05-21T12:42:13.933Z,28.51
2023-05-21T12:44:47.534Z,28.53
2023-05-21T12:47:14.420Z,28.51
2023-05-21T12:49:46.398Z,28.48
2023-05-21T12:52:13.429Z,28.32
2023-05-21T12:54:41.886Z,28.26
2023-05-21T12:57:14.167Z,28.42
2023-05-21T12:59:57.508Z,28.69
2023-05-21T13:02:27.736Z,28.56
2023-05-21T13:04:58.977Z,28.61
2023-05-21T13:07:26.839Z,28.51
2023-05-21T13:09:54.335Z,28.67
2023-05-21T13:12:22.337Z,28.65
2023-05-21T13:14:52.897Z,28.79
2023-05-21T13:17:20.053Z,28.73
2023-05-21T13:20:12.256Z,28.52
2023-05-21T13:22:42.642Z,28.41
2023-05-21T13:25:11.152Z,28.30
2023-05-21T13:27:39.612Z,28.60
2023-05-21T13:30:07.476Z,28.45
2023-05-21T13:32:34.350Z,28.40
2023-05-21T13:35:00.909Z,28.34
2023-05-21T13:37:27.877Z,28.32
2023-05-21T13:39:54.364Z,28.23
2023-05-21T13:42:21.246Z,28.36
2023-05-21T13:44:48.004Z,28.55
2023-05-21T13:47:14.589Z,28.46
2023-05-21T13:49:41.133Z,28.49
2023-05-21T13:52:08.669Z,28.49
2023-05-21T13:54:36.099Z,28.41
2023-05-21T13:57:03.358Z,28.54
2023-05-21T13:59:31.933Z,28.46
2023-05-21T14:01:59.857Z,28.18
2023-05-21T14:04:26.384Z,28.18
2023-05-21T14:06:53.087Z,28.29
2023-05-21T14:09:19.534Z,28.17
2023-05-21T14:11:46.352Z,28.12
2023-05-21T14:14:18.689Z,28.37
2023-05-21T14:16:48.867Z,28.29
2023-05-21T14:19:15.986Z,28.08
2023-05-21T14:21:43.111Z,28.15
2023-05-21T14:24:09.699Z,28.16
2023-05-21T14:26:39.963Z,28.05
2023-05-21T14:29:06.571Z,27.94
2023-05-21T14:31:33.047Z,28.09
2023-05-21T14:33:59.542Z,28.13
2023-05-21T14:36:25.992Z,28.12
2023-05-21T14:38:52.457Z,28.23
2023-05-21T14:41:18.909Z,28.22
2023-05-21T14:43:45.424Z,28.06
2023-05-21T14:46:12.013Z,28.17
2023-05-21T14:48:38.527Z,28.14
2023-05-21T14:51:05.031Z,28.12
2023-05-21T14:53:32.265Z,27.96
2023-05-21T14:55:58.845Z,27.77
2023-05-21T14:58:25.337Z,27.70
2023-05-21T15:00:51.819Z,27.78
2023-05-21T15:03:18.303Z,27.95
2023-05-21T15:05:44.792Z,27.96
2023-05-21T15:08:11.281Z,27.77
2023-05-21T15:10:37.843Z,27.87
2023-05-21T15:13:04.328Z,27.77
2023-05-21T15:15:30.774Z,27.80
2023-05-21T15:17:57.989Z,27.83
2023-05-21T15:20:24.689Z,27.89
2023-05-21T15:22:53.492Z,27.86
2023-05-21T15:25:23.509Z,27.83
2023-05-21T15:27:50.586Z,27.76
2023-05-21T15:30:17.362Z,27.80
2023-05-21T15:32:43.884Z,27.72
2023-05-21T15:35:10.492Z,27.56
2023-05-21T15:37:37.138Z,27.49
2023-05-21T15:40:04.116Z,27.48
2023-05-21T15:42:31.811Z,27.54
2023-05-21T15:44:58.607Z,27.49
2023-05-21T15:47:25.117Z,27.52
2023-05-21T15:49:51.747Z,27.63
2023-05-21T15:52:19.798Z,27.61
2023-05-21T15:54:46.940Z,27.61
2023-05-21T15:57:13.405Z,27.48
2023-05-21T15:59:39.932Z,27.46
2023-05-21T16:02:06.375Z,27.44
2023-05-21T16:04:33.850Z,27.45
2023-05-21T16:07:00.517Z,27.46
2023-05-21T16:09:27.020Z,27.30
2023-05-21T16:11:53.480Z,27.29
2023-05-21T16:14:19.941Z,27.47
2023-05-21T16:16:46.485Z,27.42
2023-05-21T16:19:13.099Z,27.42
2023-05-21T16:21:39.600Z,27.29
2023-05-21T16:24:06.583Z,27.34
2023-05-21T16:26:33.034Z,27.26
2023-05-21T16:28:59.948Z,27.17
2023-05-21T16:31:26.482Z,27.10
2023-05-21T16:33:53.009Z,27.00
2023-05-21T16:36:19.500Z,27.14
2023-05-21T16:38:45.989Z,27.09
2023-05-21T16:41:12.617Z,27.17
2023-05-21T16:43:39.130Z,27.08
2023-05-21T16:46:05.944Z,27.10
2023-05-21T16:48:32.779Z,27.04
2023-05-21T16:50:59.686Z,27.10
2023-05-21T16:53:26.804Z,27.08
2023-05-21T16:55:53.294Z,26.95
2023-05-21T16:58:19.815Z,26.95
2023-05-21T17:00:46.459Z,26.97
2023-05-21T17:03:13.049Z,26.70
2023-05-21T17:05:39.629Z,26.60
2023-05-21T17:08:06.099Z,26.52
2023-05-21T17:10:32.994Z,26.51
2023-05-21T17:13:01.866Z,26.51
2023-05-21T17:15:33.270Z,26.43
2023-05-21T17:17:59.801Z,26.35
2023-05-21T17:20:26.460Z,26.27
2023-05-21T17:22:52.963Z,26.20
2023-05-21T17:25:19.574Z,26.18
2023-05-21T17:27:46.138Z,26.19
2023-05-21T17:30:12.938Z,26.08
2023-05-21T17:32:39.431Z,26.05
2023-05-21T17:35:06.453Z,26.01
2023-05-21T17:37:34.016Z,25.86
2023-05-21T17:40:00.523Z,25.89
2023-05-21T17:42:27.020Z,25.90
2023-05-21T17:44:54.272Z,25.80
2023-05-21T17:47:20.768Z,25.89
2023-05-21T17:49:47.263Z,25.84
2023-05-21T17:52:13.780Z,25.82
2023-05-21T17:54:40.345Z,25.72
2023-05-21T17:57:06.799Z,25.66
2023-05-21T17:59:33.274Z,25.62
2023-05-21T18:02:01.521Z,25.64
2023-05-21T18:04:28.151Z,25.57
2023-05-21T18:06:54.662Z,25.54
2023-05-21T18:09:21.134Z,25.60
2023-05-21T18:11:47.593Z,25.48
2023-05-21T18:14:14.178Z,25.48
2023-05-21T18:16:40.942Z,25.39
2023-05-21T18:19:07.588Z,25.37
2023-05-21T18:21:35.169Z,25.36
2023-05-21T18:24:02.916Z,25.29
2023-05-21T18:26:30.274Z,25.28
2023-05-21T18:28:57.922Z,25.20
2023-05-21T18:31:24.783Z,25.18
2023-05-21T18:33:52.043Z,25.13
2023-05-21T18:36:18.678Z,25.08
2023-05-21T18:38:45.299Z,25.07
2023-05-21T18:41:11.809Z,25.04
2023-05-21T18:43:38.298Z,25.07
2023-05-21T18:46:04.759Z,25.02
2023-05-21T18:48:31.209Z,24.84
2023-05-21T18:50:57.782Z,24.88
2023-05-21T18:53:24.328Z,24.80
2023-05-21T18:55:50.787Z,24.82
2023-05-21T18:58:17.282Z,24.75
2023-05-21T19:00:43.751Z,24.75
2023-05-21T19:03:11.123Z,24.67
2023-05-21T19:05:37.745Z,24.64
2023-05-21T19:08:04.562Z,24.57
2023-05-21T19:10:31.024Z,24.58
2023-05-21T19:12:57.500Z,24.52
2023-05-21T19:15:24.001Z,24.51
2023-05-21T19:17:50.584Z,24.52
2023-05-21T19:20:24.320Z,24.43
2023-05-21T19:22:51.198Z,24.34
2023-05-21T19:25:17.693Z,24.37
2023-05-21T19:27:44.522Z,24.31
2023-05-21T19:30:11.297Z,24.21
2023-05-21T19:32:37.763Z,24.15
2023-05-21T19:35:05.566Z,24.22
2023-05-21T19:37:32.012Z,24.11
2023-05-21T19:39:58.490Z,24.13
2023-05-21T19:42:24.970Z,24.00
2023-05-21T19:44:51.440Z,23.98
2023-05-21T19:47:17.901Z,23.92
2023-05-21T19:49:44.475Z,23.82
2023-05-21T19:52:12.056Z,23.82
2023-05-21T19:54:38.628Z,23.83
2023-05-21T19:57:05.823Z,23.80
2023-05-21T19:59:32.359Z,23.77
2023-05-21T20:01:58.856Z,23.74
2023-05-21T20:04:25.501Z,23.72
2023-05-21T20:06:52.074Z,23.60
2023-05-21T20:09:18.595Z,23.66
2023-05-21T20:11:45.144Z,23.67
2023-05-21T20:14:11.651Z,23.58
2023-05-21T20:16:38.211Z,23.47
2023-05-21T20:19:05.667Z,23.56
2023-05-21T20:21:32.175Z,23.53
2023-05-21T20:23:58.714Z,23.53
2023-05-21T20:26:26.152Z,23.49
2023-05-21T20:28:52.651Z,23.50
2023-05-21T20:31:19.410Z,23.47
2023-05-21T20:33:46.342Z,23.52
2023-05-21T20:36:15.113Z,23.54
2023-05-21T20:38:42.050Z,23.47
2023-05-21T20:41:08.688Z,23.47
2023-05-21T20:43:37.224Z,23.47
2023-05-21T20:46:05.691Z,23.42
2023-05-21T20:48:32.249Z,23.42
2023-05-21T20:50:59.833Z,23.33
2023-05-21T20:53:26.742Z,23.38
2023-05-21T20:55:54.745Z,23.34
2023-05-21T20:58:23.857Z,23.34
2023-05-21T21:00:50.464Z,23.36
2023-05-21T21:03:18.176Z,23.30
2023-05-21T21:05:44.843Z,23.29
2023-05-21T21:08:12.234Z,23.19
2023-05-21T21:10:41.310Z,23.19
2023-05-21T21:13:08.276Z,23.21
2023-05-21T21:15:35.390Z,23.06
2023-05-21T21:18:01.952Z,23.06
2023-05-21T21:20:28.458Z,23.00
2023-05-21T21:22:54.958Z,22.98
2023-05-21T21:25:21.547Z,23.00
2023-05-21T21:27:47.997Z,22.99
2023-05-21T21:30:14.532Z,22.89
2023-05-21T21:32:41.222Z,22.86
2023-05-21T21:35:08.049Z,22.91
2023-05-21T21:37:34.607Z,22.83
2023-05-21T21:40:01.052Z,22.73
2023-05-21T21:42:27.546Z,22.79
2023-05-21T21:44:54.006Z,22.67
2023-05-21T21:47:20.465Z,22.68
2023-05-21T21:49:48.031Z,22.71
2023-05-21T21:52:14.702Z,22.70
2023-05-21T21:54:41.241Z,22.59
2023-05-21T21:57:07.696Z,22.61
2023-05-21T21:59:34.386Z,22.55
2023-05-21T22:02:01.060Z,22.53
2023-05-21T22:04:27.545Z,22.53
2023-05-21T22:06:54.052Z,22.47
2023-05-21T22:09:22.504Z,22.41
2023-05-21T22:11:49.165Z,22.46
2023-05-21T22:14:15.898Z,22.33
2023-05-21T22:16:43.265Z,22.29
2023-05-21T22:19:10.177Z,22.24
2023-05-21T22:21:36.821Z,22.22
2023-05-21T22:24:04.020Z,22.19
2023-05-21T22:26:30.537Z,22.19
2023-05-21T22:28:59.059Z,22.05
2023-05-21T22:31:26.729Z,22.02
2023-05-21T22:33:53.287Z,21.98
2023-05-21T22:36:19.740Z,22.03
2023-05-21T22:38:46.255Z,21.88
2023-05-21T22:41:12.721Z,21.93
2023-05-21T22:43:39.262Z,21.85
2023-05-21T22:46:05.824Z,21.85
2023-05-21T22:48:34.323Z,21.90
2023-05-21T22:51:01.831Z,21.82
2023-05-21T22:53:28.426Z,21.68
2023-05-21T22:55:54.897Z,21.65
2023-05-21T22:58:21.381Z,21.69
2023-05-21T23:00:48.094Z,21.64
2023-05-21T23:03:14.773Z,21.60
2023-05-21T23:05:41.371Z,21.52
2023-05-21T23:08:07.875Z,21.58
2023-05-21T23:10:35.399Z,21.39
2023-05-21T23:13:02.085Z,21.42
2023-05-21T23:15:29.527Z,21.38
2023-05-21T23:17:56.758Z,21.37
2023-05-21T23:20:24.532Z,21.38
2023-05-21T23:22:51.032Z,21.30
2023-05-21T23:25:17.818Z,21.19
2023-05-21T23:27:44.368Z,21.15
2023-05-21T23:30:11.954Z,21.11
2023-05-21T23:32:38.686Z,21.18
2023-05-21T23:35:05.648Z,21.09
2023-05-21T23:37:32.117Z,21.12
2023-05-21T23:39:58.583Z,21.04
2023-05-21T23:42:25.065Z,21.02
2023-05-21T23:44:51.527Z,20.97
2023-05-21T23:47:18.076Z,20.98
2023-05-21T23:49:44.619Z,20.96
2023-05-21T23:52:13.052Z,20.84
2023-05-21T23:54:39.545Z,20.88
2023-05-21T23:57:06.315Z,20.95
2023-05-21T23:59:32.833Z,20.88
